PKSRH WAVV-WAJO
Flight info
| Callsign | PKSRH |
|---|---|
| Flight time | N/A |
| Altitude | 17000 |
| Route | 041252S1390151E 042024S1390309E 042554S1391119E DCT 043817S1393702E DCT 050002S1403001E |
| Aircraft | C208/L-SDFGR/C |
Departure
| Time | 2026-05-04 13:55 |
|---|---|
| Airport | Wamena Airport (WAVV) |
Arrival
| Time | N/A |
|---|---|
| Airport | Oksibil Airport (WAJO) |
| Time | Latitude | Longitude | Altitude | Speed | Heading |
|---|---|---|---|---|---|
| 2026-05-04 13:44 | -4.09904 | 138.95174 | 5429 ft | 0 kts | 240° |
| 2026-05-04 13:52 | -4.09916 | 138.95179 | 5429 ft | 6 kts | 133° |
| 2026-05-04 13:52 | -4.09966 | 138.95235 | 5425 ft | 15 kts | 131° |
| 2026-05-04 13:53 | -4.10044 | 138.95323 | 5425 ft | 13 kts | 112° |
| 2026-05-04 13:53 | -4.10054 | 138.95361 | 5431 ft | 3 kts | 102° |
| 2026-05-04 13:53 | -4.10054 | 138.95406 | 5427 ft | 9 kts | 33° |
| 2026-05-04 13:54 | -4.10030 | 138.95399 | 5424 ft | 13 kts | 332° |
| 2026-05-04 13:54 | -4.09798 | 138.95279 | 5417 ft | 59 kts | 333° |
| 2026-05-04 13:54 | -4.08821 | 138.94741 | 5601 ft | 86 kts | 327° |
| 2026-05-04 13:55 | -4.08308 | 138.94407 | 5727 ft | 88 kts | 324° |
| 2026-05-04 13:55 | -4.07390 | 138.93485 | 5999 ft | 102 kts | 308° |
| 2026-05-04 13:55 | -4.06947 | 138.92904 | 6148 ft | 114 kts | 306° |
| 2026-05-04 13:56 | -4.06465 | 138.92240 | 6353 ft | 121 kts | 304° |
| 2026-05-04 13:56 | -4.05990 | 138.91538 | 6599 ft | 123 kts | 302° |
| 2026-05-04 13:56 | -4.04844 | 138.90201 | 6966 ft | 131 kts | 320° |
| 2026-05-04 13:57 | -4.04145 | 138.89610 | 7147 ft | 134 kts | 320° |
| 2026-05-04 13:57 | -4.03433 | 138.88982 | 7319 ft | 137 kts | 317° |
| 2026-05-04 13:58 | -4.01298 | 138.86939 | 7805 ft | 146 kts | 316° |
| 2026-05-04 13:58 | -3.99799 | 138.85486 | 8029 ft | 156 kts | 316° |
| 2026-05-04 13:58 | -3.99017 | 138.84730 | 8136 ft | 157 kts | 316° |
| 2026-05-04 13:59 | -3.98229 | 138.83965 | 8242 ft | 159 kts | 316° |
| 2026-05-04 13:59 | -3.97430 | 138.83188 | 8346 ft | 160 kts | 316° |
| 2026-05-04 13:59 | -3.95819 | 138.81625 | 8497 ft | 165 kts | 316° |
| 2026-05-04 14:00 | -3.94987 | 138.80822 | 8503 ft | 169 kts | 316° |
| 2026-05-04 14:00 | -3.93266 | 138.79152 | 8510 ft | 173 kts | 316° |
| 2026-05-04 14:00 | -3.92396 | 138.78308 | 8508 ft | 175 kts | 316° |
| 2026-05-04 14:01 | -3.91518 | 138.77457 | 8510 ft | 176 kts | 316° |
| 2026-05-04 14:01 | -3.90638 | 138.76612 | 8507 ft | 176 kts | 320° |
| 2026-05-04 14:01 | -3.88390 | 138.75687 | 8505 ft | 176 kts | 336° |
| 2026-05-04 14:02 | -3.87317 | 138.75127 | 8506 ft | 177 kts | 332° |
| 2026-05-04 14:02 | -3.86236 | 138.74541 | 8507 ft | 176 kts | 332° |
| 2026-05-04 14:02 | -3.85155 | 138.73954 | 8507 ft | 176 kts | 332° |
| 2026-05-04 14:02 | -3.84077 | 138.73368 | 8509 ft | 176 kts | 332° |
| 2026-05-04 14:03 | -3.82962 | 138.72869 | 8533 ft | 174 kts | 344° |
| 2026-05-04 14:03 | -3.81767 | 138.72709 | 8534 ft | 174 kts | 0° |
| 2026-05-04 14:03 | -3.80558 | 138.72763 | 8576 ft | 173 kts | 6° |
| 2026-05-04 14:03 | -3.79358 | 138.72920 | 8536 ft | 176 kts | 7° |
| 2026-05-04 14:04 | -3.77009 | 138.72871 | 8113 ft | 158 kts | 350° |
| 2026-05-04 14:04 | -3.75948 | 138.72624 | 7686 ft | 155 kts | 346° |
| 2026-05-04 14:04 | -3.74919 | 138.72312 | 7181 ft | 155 kts | 342° |
| 2026-05-04 14:05 | -3.72936 | 138.71438 | 6156 ft | 149 kts | 338° |
| 2026-05-04 14:05 | -3.71966 | 138.71101 | 5728 ft | 146 kts | 345° |
| 2026-05-04 14:05 | -3.71057 | 138.70868 | 5470 ft | 127 kts | 348° |
| 2026-05-04 14:06 | -3.70217 | 138.70835 | 5229 ft | 117 kts | 8° |
| 2026-05-04 14:06 | -3.69456 | 138.71083 | 4946 ft | 115 kts | 25° |
| 2026-05-04 14:06 | -3.68807 | 138.71571 | 4597 ft | 116 kts | 56° |
| 2026-05-04 14:06 | -3.68764 | 138.72315 | 4395 ft | 106 kts | 124° |
| 2026-05-04 14:07 | -3.69364 | 138.72462 | 4336 ft | 88 kts | 199° |
| 2026-05-04 14:07 | -3.69884 | 138.72259 | 4333 ft | 78 kts | 199° |
| 2026-05-04 14:07 | -3.70397 | 138.72085 | 4385 ft | 82 kts | 197° |
| 2026-05-04 14:07 | -3.70950 | 138.71884 | 4466 ft | 85 kts | 192° |
| 2026-05-04 14:08 | -3.71515 | 138.71746 | 4510 ft | 85 kts | 191° |
| 2026-05-04 14:08 | -3.72086 | 138.71546 | 4441 ft | 87 kts | 206° |
| 2026-05-04 14:08 | -3.72585 | 138.71225 | 4302 ft | 81 kts | 214° |
| 2026-05-04 14:08 | -3.72926 | 138.70986 | 4380 ft | 31 kts | 217° |
| 2026-05-04 14:09 | -3.73059 | 138.70902 | 4404 ft | 4 kts | 102° |
| 2026-05-04 14:09 | -3.73055 | 138.70906 | 4404 ft | 0 kts | 18° |
| 2026-05-04 14:17 | -3.73045 | 138.70907 | 4403 ft | 0 kts | 28° |
| 2026-05-04 14:19 | -3.72872 | 138.71023 | 4365 ft | 59 kts | 36° |
| 2026-05-04 14:19 | -3.72420 | 138.71338 | 4383 ft | 85 kts | 32° |
| 2026-05-04 14:19 | -3.71868 | 138.71563 | 4533 ft | 86 kts | 11° |
| 2026-05-04 14:19 | -3.71249 | 138.71689 | 4615 ft | 90 kts | 11° |
| 2026-05-04 14:20 | -3.70606 | 138.71781 | 4715 ft | 100 kts | 5° |
| 2026-05-04 14:20 | -3.69855 | 138.71753 | 4837 ft | 113 kts | 346° |
| 2026-05-04 14:20 | -3.69185 | 138.71405 | 5102 ft | 110 kts | 318° |
| 2026-05-04 14:21 | -3.68634 | 138.69778 | 5048 ft | 159 kts | 264° |
| 2026-05-04 14:21 | -3.68573 | 138.68601 | 4808 ft | 178 kts | 280° |
| 2026-05-04 14:21 | -3.68305 | 138.67432 | 5102 ft | 153 kts | 296° |
| 2026-05-04 14:21 | -3.67998 | 138.66505 | 5627 ft | 134 kts | 274° |
| 2026-05-04 14:22 | -3.68184 | 138.65643 | 5975 ft | 126 kts | 244° |
| 2026-05-04 14:22 | -3.68633 | 138.64903 | 6299 ft | 123 kts | 237° |
| 2026-05-04 14:22 | -3.69079 | 138.64180 | 6587 ft | 122 kts | 239° |
| 2026-05-04 14:22 | -3.69512 | 138.63464 | 6912 ft | 118 kts | 237° |
| 2026-05-04 14:23 | -3.70371 | 138.62082 | 7467 ft | 114 kts | 238° |
| 2026-05-04 14:23 | -3.70785 | 138.61407 | 7752 ft | 113 kts | 238° |
| 2026-05-04 14:23 | -3.71191 | 138.60744 | 8038 ft | 110 kts | 238° |
| 2026-05-04 14:24 | -3.71585 | 138.60097 | 8316 ft | 108 kts | 238° |
| 2026-05-04 14:24 | -3.71990 | 138.59434 | 8514 ft | 114 kts | 238° |
| 2026-05-04 14:24 | -3.72406 | 138.58734 | 8724 ft | 118 kts | 245° |
| 2026-05-04 14:24 | -3.72729 | 138.57975 | 8934 ft | 121 kts | 245° |
| 2026-05-04 14:25 | -3.72968 | 138.57158 | 9144 ft | 125 kts | 265° |
| 2026-05-04 14:25 | -3.72741 | 138.55421 | 9566 ft | 129 kts | 291° |
| 2026-05-04 14:25 | -3.72424 | 138.54579 | 9770 ft | 130 kts | 290° |
| 2026-05-04 14:26 | -3.72109 | 138.53730 | 9973 ft | 131 kts | 290° |
| 2026-05-04 14:26 | -3.71784 | 138.52858 | 10185 ft | 136 kts | 290° |
| 2026-05-04 14:26 | -3.71454 | 138.51963 | 10396 ft | 138 kts | 290° |
| 2026-05-04 14:26 | -3.71129 | 138.51087 | 10503 ft | 147 kts | 290° |
| 2026-05-04 14:27 | -3.70888 | 138.50437 | 10511 ft | 156 kts | 291° |
| 2026-05-04 14:27 | -3.70494 | 138.49386 | 10509 ft | 166 kts | 291° |
| 2026-05-04 14:27 | -3.70078 | 138.48283 | 10509 ft | 173 kts | 291° |
| 2026-05-04 14:28 | -3.69648 | 138.47146 | 10507 ft | 177 kts | 291° |
| 2026-05-04 14:28 | -3.69166 | 138.46002 | 10507 ft | 180 kts | 295° |
| 2026-05-04 14:28 | -3.68752 | 138.44819 | 10507 ft | 182 kts | 281° |
| 2026-05-04 14:28 | -3.68700 | 138.43552 | 10505 ft | 183 kts | 267° |
| 2026-05-04 14:29 | -3.68858 | 138.41018 | 10507 ft | 183 kts | 268° |
| 2026-05-04 14:29 | -3.68960 | 138.38899 | 10452 ft | 184 kts | 268° |
| 2026-05-04 14:30 | -3.69042 | 138.37230 | 10278 ft | 178 kts | 268° |
| 2026-05-04 14:30 | -3.69104 | 138.36009 | 10146 ft | 175 kts | 268° |
| 2026-05-04 14:30 | -3.69231 | 138.33605 | 9974 ft | 169 kts | 267° |
| 2026-05-04 14:31 | -3.69262 | 138.32431 | 9892 ft | 168 kts | 276° |
| 2026-05-04 14:31 | -3.68820 | 138.30538 | 9833 ft | 163 kts | 285° |
| 2026-05-04 14:32 | -3.68266 | 138.28378 | 9829 ft | 159 kts | 285° |
| 2026-05-04 14:32 | -3.68034 | 138.27289 | 9685 ft | 159 kts | 276° |
| 2026-05-04 14:32 | -3.68014 | 138.26186 | 9559 ft | 157 kts | 266° |
| 2026-05-04 14:32 | -3.68066 | 138.25082 | 9247 ft | 164 kts | 268° |
| 2026-05-04 14:33 | -3.68073 | 138.23946 | 8831 ft | 159 kts | 268° |
| 2026-05-04 14:33 | -3.68174 | 138.22909 | 8483 ft | 141 kts | 261° |
| 2026-05-04 14:33 | -3.68511 | 138.22045 | 8205 ft | 129 kts | 233° |
| 2026-05-04 14:33 | -3.69097 | 138.21394 | 8018 ft | 124 kts | 226° |
| 2026-05-04 14:34 | -3.69660 | 138.20759 | 7937 ft | 119 kts | 228° |
| 2026-05-04 14:34 | -3.70143 | 138.20099 | 7850 ft | 117 kts | 237° |
| 2026-05-04 14:34 | -3.70482 | 138.19380 | 7804 ft | 108 kts | 250° |
| 2026-05-04 14:34 | -3.70643 | 138.18671 | 7683 ft | 102 kts | 264° |
| 2026-05-04 14:35 | -3.70665 | 138.17965 | 7471 ft | 101 kts | 268° |
| 2026-05-04 14:35 | -3.70583 | 138.17282 | 7300 ft | 98 kts | 300° |
| 2026-05-04 14:35 | -3.69975 | 138.16972 | 7016 ft | 105 kts | 4° |
| 2026-05-04 14:35 | -3.69372 | 138.17319 | 6677 ft | 106 kts | 55° |
| 2026-05-04 14:36 | -3.69214 | 138.17958 | 6601 ft | 91 kts | 91° |
| 2026-05-04 14:36 | -3.69232 | 138.18565 | 6649 ft | 83 kts | 89° |
| 2026-05-04 14:36 | -3.69265 | 138.19150 | 6696 ft | 86 kts | 101° |
| 2026-05-04 14:36 | -3.69581 | 138.19689 | 6596 ft | 98 kts | 135° |
| 2026-05-04 14:37 | -3.70192 | 138.19982 | 6367 ft | 97 kts | 178° |
| 2026-05-04 14:37 | -3.70723 | 138.20045 | 6468 ft | 52 kts | 173° |
| 2026-05-04 14:37 | -3.70885 | 138.20048 | 6506 ft | 10 kts | 261° |
| 2026-05-04 14:37 | -3.70871 | 138.20037 | 6502 ft | 0 kts | 28° |
| 2026-05-04 14:49 | -3.70875 | 138.20048 | 6504 ft | 8 kts | 138° |
| 2026-05-04 14:50 | -3.70877 | 138.20065 | 6505 ft | 0 kts | 351° |
| 2026-05-04 14:50 | -3.70669 | 138.20039 | 6456 ft | 60 kts | 353° |
| 2026-05-04 14:50 | -3.70110 | 138.19966 | 6397 ft | 92 kts | 357° |
| 2026-05-04 14:51 | -3.69697 | 138.20319 | 6500 ft | 92 kts | 98° |
| 2026-05-04 14:51 | -3.69901 | 138.20924 | 6625 ft | 94 kts | 96° |
| 2026-05-04 14:51 | -3.69922 | 138.21594 | 6811 ft | 97 kts | 90° |
| 2026-05-04 14:51 | -3.69936 | 138.22274 | 7043 ft | 98 kts | 91° |
| 2026-05-04 14:52 | -3.70013 | 138.22953 | 7263 ft | 98 kts | 101° |
| 2026-05-04 14:52 | -3.70187 | 138.23610 | 7491 ft | 98 kts | 108° |
| 2026-05-04 14:52 | -3.70426 | 138.24248 | 7715 ft | 99 kts | 112° |
| 2026-05-04 14:52 | -3.70706 | 138.24876 | 7952 ft | 98 kts | 115° |
| 2026-05-04 14:53 | -3.71010 | 138.25487 | 8168 ft | 99 kts | 112° |
| 2026-05-04 14:53 | -3.71140 | 138.26131 | 8363 ft | 102 kts | 87° |
| 2026-05-04 14:53 | -3.71005 | 138.26860 | 8642 ft | 102 kts | 68° |
| 2026-05-04 14:53 | -3.70692 | 138.27480 | 8903 ft | 101 kts | 59° |
| 2026-05-04 14:54 | -3.70329 | 138.28122 | 9120 ft | 107 kts | 57° |
| 2026-05-04 14:54 | -3.69937 | 138.28794 | 9306 ft | 116 kts | 62° |
| 2026-05-04 14:54 | -3.69531 | 138.29531 | 9467 ft | 125 kts | 62° |
| 2026-05-04 14:54 | -3.69105 | 138.30349 | 9504 ft | 141 kts | 62° |
| 2026-05-04 14:55 | -3.68630 | 138.31262 | 9514 ft | 154 kts | 63° |
| 2026-05-04 14:55 | -3.68117 | 138.32249 | 9517 ft | 164 kts | 63° |
| 2026-05-04 14:55 | -3.67582 | 138.33282 | 9512 ft | 170 kts | 63° |
| 2026-05-04 14:55 | -3.67028 | 138.34348 | 9509 ft | 173 kts | 63° |
| 2026-05-04 14:56 | -3.66670 | 138.35491 | 9510 ft | 174 kts | 82° |
| 2026-05-04 14:56 | -3.66529 | 138.36699 | 9508 ft | 176 kts | 84° |
| 2026-05-04 14:56 | -3.66374 | 138.37898 | 9507 ft | 176 kts | 76° |
| 2026-05-04 14:56 | -3.65720 | 138.38922 | 9500 ft | 177 kts | 45° |
| 2026-05-04 14:57 | -3.64711 | 138.39612 | 9492 ft | 178 kts | 17° |
| 2026-05-04 14:57 | -3.63489 | 138.39792 | 9493 ft | 177 kts | 5° |
| 2026-05-04 14:57 | -3.62264 | 138.39901 | 9496 ft | 177 kts | 5° |
| 2026-05-04 14:57 | -3.61030 | 138.39987 | 9496 ft | 178 kts | 359° |
| 2026-05-04 14:58 | -3.59797 | 138.39852 | 9499 ft | 178 kts | 352° |
| 2026-05-04 14:58 | -3.58564 | 138.39677 | 9499 ft | 180 kts | 352° |
| 2026-05-04 14:58 | -3.57323 | 138.39504 | 9500 ft | 180 kts | 352° |
| 2026-05-04 14:58 | -3.56114 | 138.39221 | 9490 ft | 180 kts | 332° |
| 2026-05-04 14:59 | -3.55302 | 138.38305 | 9494 ft | 180 kts | 291° |
| 2026-05-04 14:59 | -3.54960 | 138.37105 | 9499 ft | 179 kts | 289° |
| 2026-05-04 14:59 | -3.53787 | 138.34908 | 9502 ft | 179 kts | 300° |
| 2026-05-04 15:00 | -3.53161 | 138.33828 | 9501 ft | 179 kts | 300° |
| 2026-05-04 15:00 | -3.52553 | 138.32764 | 9504 ft | 179 kts | 300° |
| 2026-05-04 15:00 | -3.51937 | 138.31688 | 9504 ft | 179 kts | 300° |
| 2026-05-04 15:01 | -3.50743 | 138.29480 | 9453 ft | 180 kts | 301° |
| 2026-05-04 15:01 | -3.50076 | 138.28412 | 9453 ft | 181 kts | 301° |
| 2026-05-04 15:01 | -3.49473 | 138.27389 | 9464 ft | 179 kts | 300° |
| 2026-05-04 15:01 | -3.48838 | 138.26263 | 9402 ft | 176 kts | 299° |
| 2026-05-04 15:02 | -3.48246 | 138.25293 | 9117 ft | 154 kts | 306° |
| 2026-05-04 15:02 | -3.47562 | 138.24519 | 8812 ft | 144 kts | 313° |
| 2026-05-04 15:02 | -3.46937 | 138.23760 | 8424 ft | 142 kts | 307° |
| 2026-05-04 15:02 | -3.46356 | 138.22931 | 7972 ft | 144 kts | 304° |
| 2026-05-04 15:03 | -3.45817 | 138.22118 | 7660 ft | 138 kts | 303° |
| 2026-05-04 15:03 | -3.45308 | 138.21335 | 7341 ft | 135 kts | 303° |
| 2026-05-04 15:03 | -3.44796 | 138.20551 | 6980 ft | 135 kts | 303° |
| 2026-05-04 15:03 | -3.44293 | 138.19758 | 6629 ft | 134 kts | 302° |
| 2026-05-04 15:04 | -3.43810 | 138.18961 | 6294 ft | 133 kts | 301° |
| 2026-05-04 15:04 | -3.43358 | 138.18159 | 5957 ft | 132 kts | 299° |
| 2026-05-04 15:04 | -3.42941 | 138.17354 | 5664 ft | 128 kts | 298° |
| 2026-05-04 15:04 | -3.42454 | 138.16618 | 5378 ft | 126 kts | 310° |
| 2026-05-04 15:05 | -3.41861 | 138.15970 | 5134 ft | 127 kts | 314° |
| 2026-05-04 15:05 | -3.41286 | 138.15341 | 5169 ft | 118 kts | 313° |
| 2026-05-04 15:05 | -3.40720 | 138.14733 | 5197 ft | 122 kts | 315° |
| 2026-05-04 15:05 | -3.40072 | 138.14128 | 5258 ft | 129 kts | 315° |
| 2026-05-04 15:06 | -3.39403 | 138.13478 | 5265 ft | 138 kts | 314° |
| 2026-05-04 15:06 | -3.38726 | 138.12788 | 5283 ft | 140 kts | 314° |
| 2026-05-04 15:06 | -3.38033 | 138.12094 | 5254 ft | 142 kts | 314° |
| 2026-05-04 15:07 | -3.36674 | 138.10688 | 5203 ft | 141 kts | 313° |
| 2026-05-04 15:07 | -3.36033 | 138.09952 | 5181 ft | 138 kts | 310° |
| 2026-05-04 15:07 | -3.35402 | 138.09239 | 5197 ft | 136 kts | 312° |
| 2026-05-04 15:07 | -3.34825 | 138.08500 | 5193 ft | 136 kts | 298° |
| 2026-05-04 15:08 | -3.34410 | 138.07627 | 5047 ft | 140 kts | 292° |
| 2026-05-04 15:08 | -3.34055 | 138.06729 | 4949 ft | 139 kts | 290° |
| 2026-05-04 15:08 | -3.33746 | 138.05807 | 4770 ft | 139 kts | 286° |
| 2026-05-04 15:08 | -3.33453 | 138.04903 | 4595 ft | 136 kts | 297° |
| 2026-05-04 15:09 | -3.32907 | 138.04128 | 4379 ft | 136 kts | 307° |
| 2026-05-04 15:09 | -3.32350 | 138.03363 | 4144 ft | 136 kts | 303° |
| 2026-05-04 15:09 | -3.31855 | 138.02552 | 3932 ft | 136 kts | 299° |
| 2026-05-04 15:10 | -3.31047 | 138.00875 | 3488 ft | 135 kts | 292° |
| 2026-05-04 15:10 | -3.30711 | 138.00004 | 3241 ft | 133 kts | 289° |
| 2026-05-04 15:10 | -3.30196 | 137.98224 | 2691 ft | 133 kts | 284° |
| 2026-05-04 15:11 | -3.30037 | 137.97320 | 2374 ft | 131 kts | 275° |
| 2026-05-04 15:11 | -3.30073 | 137.96418 | 2051 ft | 130 kts | 262° |
| 2026-05-04 15:11 | -3.30237 | 137.95523 | 1720 ft | 130 kts | 264° |
| 2026-05-04 15:11 | -3.30028 | 137.94743 | 1760 ft | 107 kts | 309° |
| 2026-05-04 15:12 | -3.29417 | 137.94352 | 1737 ft | 103 kts | 340° |
| 2026-05-04 15:12 | -3.28729 | 137.94314 | 1727 ft | 98 kts | 18° |
| 2026-05-04 15:12 | -3.28131 | 137.94652 | 1667 ft | 101 kts | 33° |
| 2026-05-04 15:12 | -3.27539 | 137.95041 | 1578 ft | 103 kts | 33° |
| 2026-05-04 15:13 | -3.26918 | 137.95379 | 1454 ft | 98 kts | 23° |
| 2026-05-04 15:13 | -3.26353 | 137.95675 | 1391 ft | 89 kts | 56° |
| 2026-05-04 15:13 | -3.26405 | 137.96234 | 1334 ft | 87 kts | 137° |
| 2026-05-04 15:13 | -3.27003 | 137.96234 | 1150 ft | 99 kts | 214° |
| 2026-05-04 15:14 | -3.27533 | 137.95815 | 980 ft | 92 kts | 217° |
| 2026-05-04 15:14 | -3.28003 | 137.95416 | 907 ft | 88 kts | 216° |
| 2026-05-04 15:14 | -3.28548 | 137.95188 | 846 ft | 86 kts | 198° |
| 2026-05-04 15:14 | -3.29096 | 137.94983 | 696 ft | 82 kts | 200° |
| 2026-05-04 15:15 | -3.29624 | 137.94777 | 505 ft | 80 kts | 201° |
| 2026-05-04 15:15 | -3.30133 | 137.94561 | 334 ft | 79 kts | 202° |
| 2026-05-04 15:15 | -3.30571 | 137.94370 | 308 ft | 48 kts | 203° |
| 2026-05-04 15:16 | -3.30787 | 137.94292 | 336 ft | 8 kts | 199° |
| 2026-05-04 15:16 | -3.30834 | 137.94278 | 341 ft | 1 kts | 191° |
| 2026-05-04 15:16 | -3.30837 | 137.94263 | 342 ft | 1 kts | 348° |